Time;durP1;ratioP1;P1;durP2;ratioP2;P2;SDS_P1;SDS_P2;PMS_P1;PMS_P2;Temp;Humidity;BMP_temperature;BMP_pressure;BME280_temperature;BME280_humidity;BME280_pressure;Samples;Min_cycle;Max_cycle;Signal;HPM_P1;HPM_P2
2021/11/05 00:01:47;;;;;;;0.50;0.50;;;;;;;;;;5048766;28;20647;-87
2021/11/05 00:04:13;;;;;;;0.70;0.70;;;;;;;;;;5047152;28;20099;-87
2021/11/05 00:06:39;;;;;;;0.30;0.30;;;;;;;;;;5065881;28;20317;-86
2021/11/05 00:09:06;;;;;;;0.43;0.43;;;;;;;;;;5046837;28;20384;-87
2021/11/05 00:11:32;;;;;;;0.70;0.70;;;;;;;;;;5064888;28;20039;-87
2021/11/05 00:13:58;;;;;;;0.40;0.40;;;;;;;;;;5048811;28;20063;-85
2021/11/05 00:16:24;;;;;;;0.20;0.20;;;;;;;;;;5063651;28;20588;-85
2021/11/05 00:18:50;;;;;;;0.55;0.35;;;;;;;;;;5047742;28;20036;-85
2021/11/05 00:21:16;;;;;;;0.15;0.15;;;;;;;;;;5062858;28;20024;-85
2021/11/05 00:23:42;;;;;;;1.40;1.03;;;;;;;;;;5045880;28;20039;-85
2021/11/05 00:26:08;;;;;;;1.27;1.17;;;;;;;;;;5062864;28;20296;-85
2021/11/05 00:28:34;;;;;;;1.70;1.60;;;;;;;;;;5045198;28;20117;-85
2021/11/05 00:31:00;;;;;;;0.10;0.10;;;;;;;;;;5047887;28;20779;-86
2021/11/05 00:33:26;;;;;;;0.80;0.70;;;;;;;;;;5065542;28;20028;-87
2021/11/05 00:35:53;;;;;;;0.52;0.52;;;;;;;;;;5061904;28;20039;-86
2021/11/05 00:38:19;;;;;;;0.10;0.10;;;;;;;;;;5062861;28;20094;-86
2021/11/05 00:40:46;;;;;;;0.60;0.60;;;;;;;;;;5045491;28;20029;-90
2021/11/05 00:43:12;;;;;;;0.20;0.20;;;;;;;;;;5053479;28;20036;-91
2021/11/05 00:45:38;;;;;;;1.05;0.82;;;;;;;;;;5070263;28;20028;-89
2021/11/05 00:48:04;;;;;;;2.05;1.83;;;;;;;;;;5051189;28;20028;-87
2021/11/05 00:50:31;;;;;;;0.30;0.30;;;;;;;;;;5047951;28;20028;-86
2021/11/05 00:52:57;;;;;;;0.35;0.35;;;;;;;;;;5048094;28;20044;-86
2021/11/05 00:55:24;;;;;;;0.50;0.50;;;;;;;;;;5044318;28;20033;-84
2021/11/05 00:57:50;;;;;;;1.55;0.38;;;;;;;;;;5064300;28;20040;-85
2021/11/05 01:00:17;;;;;;;0.10;0.10;;;;;;;;;;5061474;28;20043;-84
2021/11/05 01:02:44;;;;;;;0.70;0.70;;;;;;;;;;5061878;28;20032;-85
2021/11/05 01:05:11;;;;;;;0.30;0.30;;;;;;;;;;5062287;28;20129;-84
2021/11/05 01:07:37;;;;;;;2.00;1.48;;;;;;;;;;5062847;28;20056;-85
2021/11/05 01:10:03;;;;;;;0.10;0.10;;;;;;;;;;5064776;28;20028;-85
2021/11/05 01:12:29;;;;;;;0.17;0.17;;;;;;;;;;5061887;28;20158;-84
2021/11/05 01:14:56;;;;;;;0.30;0.30;;;;;;;;;;5058010;28;20039;-85
2021/11/05 01:17:22;;;;;;;0.40;0.40;;;;;;;;;;5062630;28;20037;-85
2021/11/05 01:19:48;;;;;;;1.30;0.70;;;;;;;;;;5044802;28;20025;-85
2021/11/05 01:22:14;;;;;;;0.63;0.63;;;;;;;;;;5044713;28;20059;-85
2021/11/05 01:24:40;;;;;;;0.97;0.97;;;;;;;;;;5064592;28;20033;-85
2021/11/05 01:27:06;;;;;;;0.17;0.17;;;;;;;;;;5041796;28;20028;-85
2021/11/05 01:29:33;;;;;;;1.00;0.65;;;;;;;;;;5045024;28;20027;-85
2021/11/05 01:31:59;;;;;;;0.52;0.52;;;;;;;;;;5062828;28;20459;-84
2021/11/05 01:34:25;;;;;;;0.27;0.27;;;;;;;;;;5044494;28;20028;-86
2021/11/05 01:36:51;;;;;;;1.00;0.98;;;;;;;;;;5047125;28;20484;-86
2021/11/05 01:39:17;;;;;;;0.15;0.15;;;;;;;;;;5046282;28;20029;-87
2021/11/05 01:41:44;;;;;;;1.80;1.23;;;;;;;;;;5058747;28;20025;-88
2021/11/05 01:44:10;;;;;;;1.80;1.13;;;;;;;;;;5049044;28;20037;-89
2021/11/05 01:46:41;;;;;;;0.55;0.55;;;;;;;;;;5067714;28;20062;-87
2021/11/05 01:49:11;;;;;;;1.80;1.02;;;;;;;;;;5049427;28;20113;-85
2021/11/05 01:51:38;;;;;;;1.00;1.00;;;;;;;;;;5063943;28;20102;-84
2021/11/05 01:54:11;;;;;;;0.90;0.90;;;;;;;;;;5059203;28;20033;-84
2021/11/05 01:56:38;;;;;;;0.50;0.50;;;;;;;;;;5043150;28;20037;-84
2021/11/05 01:59:04;;;;;;;0.55;0.55;;;;;;;;;;5063049;28;20032;-85
2021/11/05 02:01:30;;;;;;;0.73;0.73;;;;;;;;;;5045842;28;20032;-85
2021/11/05 02:03:56;;;;;;;1.17;1.10;;;;;;;;;;5064949;28;20082;-84
2021/11/05 02:06:23;;;;;;;0.50;0.50;;;;;;;;;;5041203;28;20500;-84
2021/11/05 02:08:51;;;;;;;1.65;1.13;;;;;;;;;;5062093;28;20044;-84
2021/11/05 02:11:18;;;;;;;0.43;0.43;;;;;;;;;;5045547;28;20033;-85
2021/11/05 02:13:44;;;;;;;;;;;;;;;;;;5066127;28;20078;-87
2021/11/05 02:16:10;;;;;;;0.35;0.35;;;;;;;;;;5046844;28;19916;-87
2021/11/05 02:18:37;;;;;;;0.30;0.30;;;;;;;;;;5063147;28;20036;-87
2021/11/05 02:21:03;;;;;;;0.95;0.95;;;;;;;;;;5062476;28;20056;-88
2021/11/05 02:23:29;;;;;;;0.50;0.50;;;;;;;;;;5046999;28;20055;-87
2021/11/05 02:25:55;;;;;;;0.30;0.30;;;;;;;;;;5063110;28;20378;-87
2021/11/05 02:28:22;;;;;;;0.10;0.10;;;;;;;;;;5042909;28;20047;-87
2021/11/05 02:30:50;;;;;;;0.75;0.75;;;;;;;;;;5062672;28;20070;-85
2021/11/05 02:33:16;;;;;;;0.38;0.38;;;;;;;;;;5043373;28;20040;-85
2021/11/05 02:35:42;;;;;;;0.43;0.40;;;;;;;;;;5061371;28;20464;-85
2021/11/05 02:38:08;;;;;;;0.10;0.10;;;;;;;;;;5061597;28;20534;-86
2021/11/05 02:40:34;;;;;;;0.60;0.60;;;;;;;;;;5044647;28;20025;-86
2021/11/05 02:43:01;;;;;;;0.23;0.23;;;;;;;;;;5045582;28;20033;-85
2021/11/05 02:45:27;;;;;;;;;;;;;;;;;;5060753;28;20032;-86
2021/11/05 02:47:55;;;;;;;0.47;0.47;;;;;;;;;;5038245;28;19920;-87
2021/11/05 02:50:21;;;;;;;0.28;0.28;;;;;;;;;;5054591;28;20127;-86
2021/11/05 02:52:47;;;;;;;0.73;0.73;;;;;;;;;;5045283;28;20067;-87
2021/11/05 02:55:14;;;;;;;1.50;1.25;;;;;;;;;;5062534;28;20024;-87
2021/11/05 02:57:40;;;;;;;;;;;;;;;;;;5046138;28;20040;-87
2021/11/05 03:00:07;;;;;;;0.30;0.30;;;;;;;;;;5042404;28;19962;-86
2021/11/05 03:02:33;;;;;;;0.30;0.30;;;;;;;;;;5060069;28;20464;-86
2021/11/05 03:05:00;;;;;;;0.17;0.17;;;;;;;;;;5048215;28;20035;-86
2021/11/05 03:07:26;;;;;;;0.20;0.20;;;;;;;;;;5044762;28;20083;-88
2021/11/05 03:09:52;;;;;;;0.45;0.30;;;;;;;;;;5062667;28;20032;-87
2021/11/05 03:12:18;;;;;;;0.13;0.13;;;;;;;;;;5045823;28;20754;-86
2021/11/05 03:14:45;;;;;;;0.55;0.55;;;;;;;;;;5060997;28;20073;-86
2021/11/05 03:17:12;;;;;;;0.22;0.22;;;;;;;;;;5061409;28;20450;-84
2021/11/05 03:19:38;;;;;;;0.32;0.32;;;;;;;;;;5061118;28;20036;-85
2021/11/05 03:22:05;;;;;;;0.30;0.30;;;;;;;;;;5063067;28;20037;-87
2021/11/05 03:24:31;;;;;;;0.25;0.25;;;;;;;;;;5060327;28;20033;-85
2021/11/05 03:26:57;;;;;;;1.20;0.57;;;;;;;;;;5059241;28;20045;-85
2021/11/05 03:29:23;;;;;;;0.37;0.37;;;;;;;;;;5061332;28;20036;-85
2021/11/05 03:31:49;;;;;;;0.90;0.80;;;;;;;;;;5059920;28;20088;-84
2021/11/05 03:34:15;;;;;;;0.30;0.30;;;;;;;;;;5061804;28;20052;-84
2021/11/05 03:36:41;;;;;;;0.93;0.93;;;;;;;;;;5061279;28;20041;-84
2021/11/05 03:39:07;;;;;;;0.75;0.75;;;;;;;;;;5061290;28;20105;-84
2021/11/05 03:41:33;;;;;;;0.77;0.67;;;;;;;;;;5044440;28;20553;-84
2021/11/05 03:44:00;;;;;;;0.53;0.53;;;;;;;;;;5061817;28;20030;-86
2021/11/05 03:46:27;;;;;;;0.20;0.20;;;;;;;;;;5043625;28;20033;-86
2021/11/05 03:48:53;;;;;;;2.08;1.17;;;;;;;;;;5045485;28;20036;-87
2021/11/05 03:51:19;;;;;;;0.57;0.57;;;;;;;;;;5063230;28;20029;-87
2021/11/05 03:53:45;;;;;;;0.40;0.40;;;;;;;;;;5063977;28;20774;-88
2021/11/05 03:56:11;;;;;;;0.77;0.77;;;;;;;;;;5065450;28;20450;-87
2021/11/05 03:58:37;;;;;;;0.20;0.20;;;;;;;;;;5049159;28;20451;-87
2021/11/05 04:01:04;;;;;;;0.20;0.20;;;;;;;;;;5050248;28;20079;-86
2021/11/05 04:03:30;;;;;;;2.83;0.75;;;;;;;;;;5047186;28;20032;-87
2021/11/05 04:05:56;;;;;;;0.33;0.33;;;;;;;;;;5043511;28;20409;-84
2021/11/05 04:08:24;;;;;;;4.07;1.27;;;;;;;;;;5044478;28;20052;-84
2021/11/05 04:10:50;;;;;;;0.20;0.20;;;;;;;;;;5044104;28;20029;-85
2021/11/05 04:13:16;;;;;;;0.80;0.40;;;;;;;;;;5045573;28;20032;-85
2021/11/05 04:15:42;;;;;;;0.73;0.60;;;;;;;;;;5045058;28;20143;-86
2021/11/05 04:18:08;;;;;;;1.07;1.03;;;;;;;;;;5045007;28;20146;-86
2021/11/05 04:20:34;;;;;;;0.10;0.10;;;;;;;;;;5044500;28;20349;-84
2021/11/05 04:23:04;;;;;;;1.20;0.40;;;;;;;;;;5044703;28;20636;-87
2021/11/05 04:25:30;;;;;;;0.75;0.52;;;;;;;;;;5038453;28;20181;-86
2021/11/05 04:27:56;;;;;;;0.10;0.10;;;;;;;;;;5047629;28;20040;-86
2021/11/05 04:30:22;;;;;;;0.10;0.10;;;;;;;;;;5044878;28;20040;-84
2021/11/05 04:32:48;;;;;;;0.20;0.20;;;;;;;;;;5043830;28;20036;-85
2021/11/05 04:35:14;;;;;;;0.73;0.73;;;;;;;;;;5043890;28;20531;-87
2021/11/05 04:37:40;;;;;;;0.32;0.32;;;;;;;;;;5044990;28;20390;-85
2021/11/05 04:40:06;;;;;;;0.13;0.13;;;;;;;;;;5046536;28;20025;-87
2021/11/05 04:42:32;;;;;;;0.20;0.20;;;;;;;;;;5045995;28;20087;-84
2021/11/05 04:44:59;;;;;;;0.30;0.30;;;;;;;;;;5043267;28;20037;-84
2021/11/05 04:47:25;;;;;;;0.63;0.63;;;;;;;;;;5045096;28;20094;-84
2021/11/05 04:49:51;;;;;;;0.22;0.22;;;;;;;;;;5043664;28;20530;-84
2021/11/05 04:52:17;;;;;;;0.10;0.10;;;;;;;;;;5040640;28;20028;-84
2021/11/05 04:54:43;;;;;;;0.43;0.43;;;;;;;;;;5046099;28;20033;-85
2021/11/05 04:57:09;;;;;;;0.38;0.38;;;;;;;;;;5043634;28;20045;-86
2021/11/05 04:59:36;;;;;;;0.10;0.10;;;;;;;;;;5039606;28;20017;-86
2021/11/05 05:02:02;;;;;;;0.40;0.40;;;;;;;;;;5045628;28;20037;-87
2021/11/05 05:04:28;;;;;;;0.22;0.17;;;;;;;;;;5043567;28;20040;-87
2021/11/05 05:06:55;;;;;;;0.20;0.20;;;;;;;;;;5054363;28;20078;-85
2021/11/05 05:09:21;;;;;;;0.57;0.57;;;;;;;;;;5064508;28;20029;-87
2021/11/05 05:11:48;;;;;;;0.30;0.30;;;;;;;;;;5048643;28;20045;-86
2021/11/05 05:14:15;;;;;;;0.90;0.47;;;;;;;;;;5059405;28;20036;-86
2021/11/05 05:16:41;;;;;;;0.20;0.20;;;;;;;;;;5046414;28;20033;-86
2021/11/05 05:19:07;;;;;;;2.08;1.00;;;;;;;;;;5049864;28;20439;-88
2021/11/05 05:21:33;;;;;;;0.23;0.23;;;;;;;;;;5065036;28;20039;-87
2021/11/05 05:23:59;;;;;;;0.17;0.17;;;;;;;;;;5063320;28;20029;-88
2021/11/05 05:26:25;;;;;;;0.70;0.70;;;;;;;;;;5048126;28;20407;-87
2021/11/05 05:28:51;;;;;;;1.38;1.27;;;;;;;;;;5043484;28;20032;-86
2021/11/05 05:31:17;;;;;;;0.30;0.30;;;;;;;;;;5062343;28;20036;-85
2021/11/05 05:33:43;;;;;;;0.30;0.30;;;;;;;;;;5065719;28;20483;-86
2021/11/05 05:36:10;;;;;;;2.03;1.30;;;;;;;;;;5064783;28;20029;-84
2021/11/05 05:38:36;;;;;;;0.60;0.60;;;;;;;;;;5063811;28;20067;-83
2021/11/05 05:41:03;;;;;;;0.17;0.17;;;;;;;;;;5062925;28;20017;-88
2021/11/05 05:43:29;;;;;;;1.60;1.50;;;;;;;;;;5045107;28;20587;-83
2021/11/05 05:45:56;;;;;;;1.45;1.25;;;;;;;;;;5064646;28;20529;-80
2021/11/05 05:48:22;;;;;;;0.82;0.82;;;;;;;;;;5062215;28;20064;-87
2021/11/05 05:50:48;;;;;;;1.30;1.00;;;;;;;;;;5045217;28;20503;-88
2021/11/05 05:53:14;;;;;;;0.20;0.20;;;;;;;;;;5047377;28;20399;-86
2021/11/05 05:55:40;;;;;;;1.40;0.53;;;;;;;;;;5047821;28;20062;-86
2021/11/05 05:58:07;;;;;;;0.22;0.22;;;;;;;;;;5048237;28;20032;-85
2021/11/05 06:00:34;;;;;;;0.45;0.32;;;;;;;;;;5066256;28;20189;-84
2021/11/05 06:03:00;;;;;;;3.10;1.38;;;;;;;;;;5048265;28;20036;-84
2021/11/05 06:05:26;;;;;;;0.20;0.20;;;;;;;;;;5062217;28;20035;-84
2021/11/05 06:07:52;;;;;;;0.43;0.43;;;;;;;;;;5064426;28;20060;-89
2021/11/05 06:10:19;;;;;;;0.60;0.60;;;;;;;;;;5047545;28;20032;-90
2021/11/05 06:12:45;;;;;;;2.40;2.17;;;;;;;;;;5043570;28;20036;-90
2021/11/05 06:15:11;;;;;;;4.63;2.70;;;;;;;;;;5064616;28;20151;-87
2021/11/05 06:17:38;;;;;;;0.20;0.20;;;;;;;;;;5041924;28;20151;-84
2021/11/05 06:20:04;;;;;;;4.30;3.25;;;;;;;;;;5059747;28;20438;-87
2021/11/05 06:22:31;;;;;;;2.00;1.90;;;;;;;;;;5041762;28;20037;-86
2021/11/05 06:24:58;;;;;;;0.77;0.77;;;;;;;;;;5064428;28;20028;-86
2021/11/05 06:27:25;;;;;;;1.35;1.30;;;;;;;;;;5045303;28;20036;-87
2021/11/05 06:29:51;;;;;;;1.55;1.45;;;;;;;;;;5045143;28;20056;-87
2021/11/05 06:32:17;;;;;;;3.57;2.00;;;;;;;;;;5043305;28;20044;-87
2021/11/05 06:34:43;;;;;;;0.88;0.88;;;;;;;;;;5042554;28;20275;-85
2021/11/05 06:37:09;;;;;;;1.75;1.65;;;;;;;;;;5042318;28;20028;-84
2021/11/05 06:39:35;;;;;;;1.75;1.60;;;;;;;;;;5045554;28;20032;-82
2021/11/05 06:42:01;;;;;;;1.20;0.43;;;;;;;;;;5044205;28;20099;-90
2021/11/05 06:44:27;;;;;;;0.82;0.82;;;;;;;;;;5047145;28;20039;-91
2021/11/05 06:46:53;;;;;;;0.10;0.10;;;;;;;;;;5046940;28;20029;-92
2021/11/05 06:49:19;;;;;;;0.90;0.90;;;;;;;;;;5066595;28;20697;-92
2021/11/05 06:51:46;;;;;;;0.83;0.83;;;;;;;;;;5049279;28;20086;-92
2021/11/05 06:54:12;;;;;;;0.67;0.67;;;;;;;;;;5050639;28;20028;-92
2021/11/05 06:56:38;;;;;;;1.23;1.20;;;;;;;;;;5049508;28;20033;-93
2021/11/05 06:59:04;;;;;;;0.77;0.77;;;;;;;;;;5041756;28;20411;-92
2021/11/05 07:01:30;;;;;;;1.67;1.35;;;;;;;;;;5042593;28;20037;-92
2021/11/05 07:03:56;;;;;;;0.63;0.63;;;;;;;;;;5050267;28;20041;-92
2021/11/05 07:06:23;;;;;;;2.15;1.95;;;;;;;;;;5048210;28;20124;-93
2021/11/05 07:08:49;;;;;;;2.58;2.38;;;;;;;;;;5047171;28;20410;-94
2021/11/05 07:11:15;;;;;;;2.40;2.30;;;;;;;;;;5037667;28;20036;-90
2021/11/05 07:13:41;;;;;;;0.70;0.70;;;;;;;;;;5048579;28;20038;-88
2021/11/05 07:16:07;;;;;;;1.02;1.02;;;;;;;;;;5047638;28;20039;-88
2021/11/05 07:18:34;;;;;;;32.35;4.40;;;;;;;;;;5065317;28;20107;-88
2021/11/05 07:21:03;;;;;;;2.27;1.00;;;;;;;;;;5035513;28;20037;-88
2021/11/05 07:23:31;;;;;;;2.47;2.28;;;;;;;;;;5038965;28;20032;-87
2021/11/05 07:25:57;;;;;;;1.63;1.52;;;;;;;;;;5059228;28;20090;-89
2021/11/05 07:28:23;;;;;;;0.40;0.40;;;;;;;;;;5046514;28;20040;-91
2021/11/05 07:30:49;;;;;;;0.30;0.30;;;;;;;;;;5048288;28;20301;-88
2021/11/05 07:33:15;;;;;;;0.10;0.10;;;;;;;;;;5049986;28;20140;-85
2021/11/05 07:35:42;;;;;;;0.32;0.32;;;;;;;;;;5065258;28;20029;-89
2021/11/05 07:38:08;;;;;;;0.30;0.30;;;;;;;;;;5067672;28;20086;-87
2021/11/05 07:40:34;;;;;;;0.63;0.63;;;;;;;;;;5046126;28;20496;-86
2021/11/05 07:43:00;;;;;;;0.70;0.70;;;;;;;;;;5063161;28;20036;-86
2021/11/05 07:45:26;;;;;;;0.32;0.32;;;;;;;;;;5066924;28;20063;-92
2021/11/05 07:47:55;;;;;;;0.20;0.20;;;;;;;;;;5051416;28;20031;-89
2021/11/05 07:50:21;;;;;;;0.10;0.10;;;;;;;;;;5067703;28;20282;-86
2021/11/05 07:52:47;;;;;;;0.63;0.63;;;;;;;;;;5067089;28;20098;-91
2021/11/05 07:55:13;;;;;;;0.30;0.30;;;;;;;;;;5043623;28;20389;-93
2021/11/05 07:57:40;;;;;;;0.23;0.23;;;;;;;;;;5055728;28;20040;-90
2021/11/05 08:00:07;;;;;;;5.53;2.38;;;;;;;;;;5054821;28;20033;-91
2021/11/05 08:02:34;;;;;;;4.82;2.53;;;;;;;;;;5070596;28;20565;-90
2021/11/05 08:05:00;;;;;;;1.33;1.30;;;;;;;;;;5047738;28;20024;-88
2021/11/05 08:07:26;;;;;;;0.10;0.10;;;;;;;;;;5064343;28;20063;-87
2021/11/05 08:09:52;;;;;;;0.93;0.93;;;;;;;;;;5063677;28;20112;-80
2021/11/05 08:12:18;;;;;;;0.70;0.30;;;;;;;;;;5055732;28;20078;-80
2021/11/05 08:14:45;;;;;;;0.13;0.13;;;;;;;;;;5050492;28;20090;-80
2021/11/05 08:17:11;;;;;;;0.65;0.65;;;;;;;;;;5051774;28;20024;-81
2021/11/05 08:19:37;;;;;;;0.57;0.57;;;;;;;;;;5064233;28;20037;-80
2021/11/05 08:22:03;;;;;;;0.40;0.40;;;;;;;;;;5068630;28;20033;-81
2021/11/05 08:24:29;;;;;;;0.30;0.30;;;;;;;;;;5063200;28;20036;-81
2021/11/05 08:26:56;;;;;;;0.40;0.40;;;;;;;;;;5062834;28;20531;-82
2021/11/05 08:29:22;;;;;;;0.32;0.32;;;;;;;;;;5044352;28;20282;-81
2021/11/05 08:31:48;;;;;;;0.57;0.57;;;;;;;;;;5060486;28;20436;-81
2021/11/05 08:34:14;;;;;;;0.20;0.20;;;;;;;;;;5063273;28;20492;-81
2021/11/05 08:36:40;;;;;;;0.50;0.50;;;;;;;;;;5062763;28;20029;-82
2021/11/05 08:39:07;;;;;;;0.22;0.22;;;;;;;;;;5063616;28;20793;-81
2021/11/05 08:41:33;;;;;;;0.10;0.10;;;;;;;;;;5062458;28;20617;-81
2021/11/05 08:43:59;;;;;;;0.77;0.47;;;;;;;;;;5060772;28;20032;-81
2021/11/05 08:46:26;;;;;;;0.50;0.50;;;;;;;;;;5063815;28;20032;-81
2021/11/05 08:48:53;;;;;;;0.40;0.40;;;;;;;;;;5047791;28;20056;-82
2021/11/05 08:51:20;;;;;;;0.20;0.20;;;;;;;;;;5044504;28;20040;-81
2021/11/05 08:53:47;;;;;;;0.70;0.68;;;;;;;;;;5063776;28;20748;-81
2021/11/05 08:56:13;;;;;;;1.42;1.20;;;;;;;;;;5063595;28;20024;-83
2021/11/05 08:58:39;;;;;;;0.82;0.38;;;;;;;;;;5045760;28;20044;-84
2021/11/05 09:01:06;;;;;;;0.25;0.25;;;;;;;;;;5060171;28;20054;-84
2021/11/05 09:03:32;;;;;;;0.55;0.55;;;;;;;;;;5062710;28;20052;-84
2021/11/05 09:05:59;;;;;;;0.20;0.20;;;;;;;;;;5046628;28;20135;-84
2021/11/05 09:08:29;;;;;;;0.20;0.20;;;;;;;;;;5063746;28;20028;-84
2021/11/05 09:10:55;;;;;;;0.15;0.15;;;;;;;;;;5046544;28;20035;-84
2021/11/05 09:13:21;;;;;;;2.33;0.50;;;;;;;;;;5063814;28;20063;-84
2021/11/05 09:15:47;;;;;;;0.32;0.32;;;;;;;;;;5047694;28;20033;-84
2021/11/05 09:18:13;;;;;;;0.63;0.63;;;;;;;;;;5063457;28;20740;-85
2021/11/05 09:20:39;;;;;;;0.60;0.60;;;;;;;;;;5062959;28;20525;-84
2021/11/05 09:23:06;;;;;;;0.20;0.20;;;;;;;;;;5063722;28;20036;-86
2021/11/05 09:25:32;;;;;;;;;;;;;;;;;;5047894;28;20695;-86
2021/11/05 09:27:58;;;;;;;0.10;0.10;;;;;;;;;;5061807;28;19921;-85
2021/11/05 09:30:24;;;;;;;0.43;0.43;;;;;;;;;;5058592;28;20558;-85
2021/11/05 09:32:53;;;;;;;0.17;0.17;;;;;;;;;;5046228;28;20294;-85
2021/11/05 09:35:19;;;;;;;5.40;2.08;;;;;;;;;;5062805;28;20488;-85
2021/11/05 09:37:45;;;;;;;0.47;0.47;;;;;;;;;;5043693;28;20041;-85
2021/11/05 09:40:14;;;;;;;0.98;0.47;;;;;;;;;;5063792;28;20259;-83
2021/11/05 09:42:44;;;;;;;0.28;0.28;;;;;;;;;;5063780;28;20032;-84
2021/11/05 09:45:11;;;;;;;0.52;0.52;;;;;;;;;;5045681;28;20120;-84
2021/11/05 09:47:39;;;;;;;0.47;0.47;;;;;;;;;;5045532;28;20078;-85
2021/11/05 09:50:05;;;;;;;0.13;0.13;;;;;;;;;;5045459;28;20032;-84
2021/11/05 09:52:31;;;;;;;0.45;0.45;;;;;;;;;;5062383;28;20135;-83
2021/11/05 09:54:59;;;;;;;1.35;1.25;;;;;;;;;;5044515;28;20044;-84
2021/11/05 09:57:25;;;;;;;1.25;0.57;;;;;;;;;;5060095;28;20049;-83
2021/11/05 09:59:51;;;;;;;0.20;0.20;;;;;;;;;;5041504;28;20491;-84
2021/11/05 10:02:17;;;;;;;0.13;0.13;;;;;;;;;;5062125;28;20036;-84
2021/11/05 10:04:44;;;;;;;0.40;0.40;;;;;;;;;;5061804;28;20020;-85
2021/11/05 10:07:11;;;;;;;0.55;0.38;;;;;;;;;;5063585;28;20045;-84
2021/11/05 10:09:37;;;;;;;0.17;0.17;;;;;;;;;;5051928;28;20083;-85
2021/11/05 10:12:15;;;;;;;1.13;1.13;;;;;;;;;;5058775;28;20032;-84
2021/11/05 10:14:41;;;;;;;0.30;0.30;;;;;;;;;;5045415;28;20025;-85
2021/11/05 10:17:09;;;;;;;0.30;0.30;;;;;;;;;;5045684;28;20155;-85
2021/11/05 10:19:47;;;;;;;0.70;0.60;;;;;;;;;;5043281;28;20087;-84
2021/11/05 10:22:32;;;;;;;0.52;0.52;;;;;;;;;;5063116;28;20025;-84
2021/11/05 10:25:16;;;;;;;0.45;0.45;;;;;;;;;;5050975;28;20037;-84
2021/11/05 10:27:43;;;;;;;0.30;0.30;;;;;;;;;;5030428;28;20037;-85
2021/11/05 10:30:09;;;;;;;0.20;0.20;;;;;;;;;;5048204;28;20035;-85
2021/11/05 10:32:40;;;;;;;0.25;0.22;;;;;;;;;;5036108;28;20036;-84
2021/11/05 10:35:13;;;;;;;0.40;0.40;;;;;;;;;;5052307;28;20029;-84
2021/11/05 10:37:41;;;;;;;0.32;0.32;;;;;;;;;;5039032;28;20049;-84
2021/11/05 10:40:09;;;;;;;1.45;0.65;;;;;;;;;;5049767;28;20417;-84
2021/11/05 10:42:37;;;;;;;0.60;0.60;;;;;;;;;;5042375;28;20039;-84
2021/11/05 10:45:16;;;;;;;0.17;0.17;;;;;;;;;;5056610;28;20013;-84
2021/11/05 10:47:54;;;;;;;0.13;0.13;;;;;;;;;;5041667;28;20033;-84
2021/11/05 10:50:33;;;;;;;0.93;0.80;;;;;;;;;;5041010;28;20050;-85
2021/11/05 10:53:00;;;;;;;0.50;0.50;;;;;;;;;;5040895;28;20047;-85
2021/11/05 10:55:38;;;;;;;0.20;0.20;;;;;;;;;;5046875;28;20124;-84
2021/11/05 10:58:04;;;;;;;0.60;0.55;;;;;;;;;;5038609;28;20488;-84
2021/11/05 11:00:31;;;;;;;0.10;0.10;;;;;;;;;;5044370;28;20029;-85
2021/11/05 11:03:07;;;;;;;0.40;0.40;;;;;;;;;;5050694;28;20029;-86
2021/11/05 11:05:34;;;;;;;0.10;0.10;;;;;;;;;;5049782;28;20029;-83
2021/11/05 11:08:01;;;;;;;;;;;;;;;;;;5050222;28;20106;-83
2021/11/05 11:10:28;;;;;;;0.40;0.40;;;;;;;;;;5047445;28;20050;-83
2021/11/05 11:12:54;;;;;;;;;;;;;;;;;;5058027;28;20068;-83
2021/11/05 11:15:40;;;;;;;0.22;0.22;;;;;;;;;;5063470;28;20025;-83
2021/11/05 11:18:06;;;;;;;0.50;0.50;;;;;;;;;;5048104;28;20044;-83
2021/11/05 11:20:36;;;;;;;3.63;1.30;;;;;;;;;;5064752;28;20036;-83
2021/11/05 11:23:02;;;;;;;0.47;0.47;;;;;;;;;;5065233;28;20039;-82
2021/11/05 11:25:29;;;;;;;0.47;0.47;;;;;;;;;;5064987;28;20034;-83
2021/11/05 11:27:55;;;;;;;0.32;0.32;;;;;;;;;;5059897;28;20262;-82
2021/11/05 11:30:21;;;;;;;0.63;0.63;;;;;;;;;;5060542;28;20025;-83
2021/11/05 11:32:47;;;;;;;0.50;0.50;;;;;;;;;;5056120;28;20107;-83
2021/11/05 11:35:13;;;;;;;0.10;0.10;;;;;;;;;;5055403;28;20054;-82
2021/11/05 11:37:41;;;;;;;0.47;0.43;;;;;;;;;;5037766;28;20834;-82
2021/11/05 11:40:07;;;;;;;0.28;0.28;;;;;;;;;;5045076;28;20028;-82
2021/11/05 11:42:33;;;;;;;0.10;0.10;;;;;;;;;;5044737;28;20028;-82
2021/11/05 11:45:00;;;;;;;0.10;0.10;;;;;;;;;;5055968;28;20383;-81
2021/11/05 11:47:26;;;;;;;0.57;0.57;;;;;;;;;;5036239;28;20067;-80
2021/11/05 11:49:52;;;;;;;0.30;0.30;;;;;;;;;;5051325;28;20040;-82
2021/11/05 11:52:18;;;;;;;0.10;0.10;;;;;;;;;;5051827;28;20082;-82
2021/11/05 11:54:45;;;;;;;0.13;0.13;;;;;;;;;;5034960;28;20032;-82
2021/11/05 11:57:16;;;;;;;0.30;0.30;;;;;;;;;;5050440;28;20443;-82
2021/11/05 11:59:44;;;;;;;0.13;0.13;;;;;;;;;;5052801;28;20029;-83
2021/11/05 12:02:28;;;;;;;0.25;0.25;;;;;;;;;;5045997;28;20525;-82
2021/11/05 12:04:54;;;;;;;0.73;0.50;;;;;;;;;;5061570;28;20525;-82
2021/11/05 12:07:20;;;;;;;0.30;0.23;;;;;;;;;;5064562;28;20112;-82
2021/11/05 12:09:46;;;;;;;0.22;0.22;;;;;;;;;;5058193;28;20782;-82
2021/11/05 12:12:22;;;;;;;0.23;0.23;;;;;;;;;;5059861;28;20024;-82
2021/11/05 12:15:00;;;;;;;1.17;0.52;;;;;;;;;;5047154;28;20419;-82
2021/11/05 12:17:26;;;;;;;0.10;0.10;;;;;;;;;;5045656;28;20551;-82
2021/11/05 12:20:00;;;;;;;0.30;0.30;;;;;;;;;;5042418;28;20044;-83
2021/11/05 12:22:27;;;;;;;0.40;0.40;;;;;;;;;;5053466;28;20858;-83
2021/11/05 12:25:13;;;;;;;1.02;1.02;;;;;;;;;;5062654;28;20017;-82
2021/11/05 12:27:39;;;;;;;0.10;0.10;;;;;;;;;;5062713;28;20622;-82
2021/11/05 12:30:10;;;;;;;0.20;0.20;;;;;;;;;;5059779;28;20509;-82
2021/11/05 12:32:37;;;;;;;0.10;0.10;;;;;;;;;;5059012;28;20032;-82
2021/11/05 12:35:05;;;;;;;0.20;0.20;;;;;;;;;;5059498;28;20408;-82
2021/11/05 12:37:32;;;;;;;0.10;0.10;;;;;;;;;;5062558;28;20041;-82
2021/11/05 12:40:17;;;;;;;0.38;0.38;;;;;;;;;;5065462;28;20021;-82
2021/11/05 12:42:43;;;;;;;0.32;0.32;;;;;;;;;;5065408;28;20028;-82
2021/11/05 12:45:09;;;;;;;0.10;0.10;;;;;;;;;;5061748;28;20032;-82
2021/11/05 12:47:48;;;;;;;0.10;0.10;;;;;;;;;;5043827;28;20028;-82
2021/11/05 12:50:34;;;;;;;0.85;0.73;;;;;;;;;;5061827;28;20108;-82
2021/11/05 12:53:01;;;;;;;0.17;0.17;;;;;;;;;;5061424;28;20024;-84
2021/11/05 12:55:32;;;;;;;1.02;0.43;;;;;;;;;;5062590;28;20029;-82
2021/11/05 12:58:00;;;;;;;1.88;0.65;;;;;;;;;;5064819;28;20065;-82
2021/11/05 13:00:28;;;;;;;0.30;0.30;;;;;;;;;;5043981;28;20382;-81
2021/11/05 13:02:54;;;;;;;0.20;0.20;;;;;;;;;;5067117;28;20498;-82
2021/11/05 13:05:21;;;;;;;0.10;0.10;;;;;;;;;;5046005;28;20036;-82
2021/11/05 13:07:57;;;;;;;0.43;0.28;;;;;;;;;;5061014;28;20044;-83
2021/11/05 13:10:24;;;;;;;0.10;0.10;;;;;;;;;;5043576;28;20040;-82
2021/11/05 13:12:51;;;;;;;0.10;0.10;;;;;;;;;;5060048;28;20037;-81
2021/11/05 13:15:17;;;;;;;0.10;0.10;;;;;;;;;;5047846;28;20219;-80
2021/11/05 13:17:43;;;;;;;0.20;0.20;;;;;;;;;;5047600;28;20043;-80
2021/11/05 13:20:13;;;;;;;0.10;0.10;;;;;;;;;;5049131;28;20428;-80
2021/11/05 13:22:40;;;;;;;0.10;0.10;;;;;;;;;;5046947;28;20040;-80
2021/11/05 13:25:16;;;;;;;0.10;0.10;;;;;;;;;;5040565;28;20064;-81
2021/11/05 13:27:43;;;;;;;0.30;0.30;;;;;;;;;;5059332;28;20522;-81
2021/11/05 13:30:09;;;;;;;0.20;0.20;;;;;;;;;;5058746;28;20059;-81
2021/11/05 13:32:36;;;;;;;0.17;0.17;;;;;;;;;;5058823;28;20044;-81
2021/11/05 13:35:02;;;;;;;0.20;0.20;;;;;;;;;;5053739;28;20590;-81
2021/11/05 13:37:29;;;;;;;0.10;0.10;;;;;;;;;;5054712;28;20040;-81
2021/11/05 13:39:56;;;;;;;0.10;0.10;;;;;;;;;;5052068;28;20029;-81
2021/11/05 13:42:24;;;;;;;0.20;0.20;;;;;;;;;;5052093;28;20382;-80
2021/11/05 13:45:08;;;;;;;0.40;0.40;;;;;;;;;;5053986;28;20033;-82
2021/11/05 13:47:37;;;;;;;0.20;0.20;;;;;;;;;;5052348;28;20802;-81
2021/11/05 13:50:05;;;;;;;0.20;0.20;;;;;;;;;;5050348;28;20040;-81
2021/11/05 13:52:31;;;;;;;0.10;0.10;;;;;;;;;;5051474;28;20094;-81
2021/11/05 13:54:57;;;;;;;0.10;0.10;;;;;;;;;;5049886;28;20389;-81
2021/11/05 13:57:23;;;;;;;0.57;0.53;;;;;;;;;;5048160;28;20036;-81
2021/11/05 13:59:51;;;;;;;0.25;0.25;;;;;;;;;;5052477;28;20267;-81
2021/11/05 14:02:17;;;;;;;0.20;0.20;;;;;;;;;;5049521;28;20032;-81
2021/11/05 14:04:44;;;;;;;0.10;0.10;;;;;;;;;;5058396;28;20104;-81
2021/11/05 14:07:11;;;;;;;0.10;0.10;;;;;;;;;;5059012;28;20049;-82
2021/11/05 14:09:37;;;;;;;;;;;;;;;;;;5050398;28;20035;-82
2021/11/05 14:12:04;;;;;;;0.10;0.10;;;;;;;;;;5046368;28;19908;-82
2021/11/05 14:14:31;;;;;;;0.15;0.15;;;;;;;;;;5046142;28;20093;-81
2021/11/05 14:16:59;;;;;;;0.10;0.10;;;;;;;;;;5043023;28;20040;-80
2021/11/05 14:19:26;;;;;;;0.10;0.10;;;;;;;;;;5046309;28;20032;-79
2021/11/05 14:22:08;;;;;;;0.10;0.10;;;;;;;;;;5043806;28;20379;-79
2021/11/05 14:24:46;;;;;;;0.20;0.20;;;;;;;;;;5047611;28;20078;-80
2021/11/05 14:27:29;;;;;;;0.10;0.10;;;;;;;;;;5050236;28;20032;-80
2021/11/05 14:29:56;;;;;;;0.10;0.10;;;;;;;;;;5033340;28;20036;-80
2021/11/05 14:32:22;;;;;;;;;;;;;;;;;;5046717;28;20538;-80
2021/11/05 14:34:51;;;;;;;0.32;0.32;;;;;;;;;;5047318;28;19912;-81
2021/11/05 14:37:20;;;;;;;0.32;0.32;;;;;;;;;;5044992;28;20033;-80
2021/11/05 14:39:49;;;;;;;0.10;0.10;;;;;;;;;;5028312;28;20081;-80
2021/11/05 14:42:16;;;;;;;0.35;0.30;;;;;;;;;;5047891;28;20519;-80
2021/11/05 14:44:42;;;;;;;0.10;0.10;;;;;;;;;;5052687;28;20060;-78
2021/11/05 14:47:08;;;;;;;0.10;0.10;;;;;;;;;;5044086;28;20033;-80